Time;durP1;ratioP1;P1;durP2;ratioP2;P2;SDS_P1;SDS_P2;PMS_P1;PMS_P2;Temp;Humidity;BMP_temperature;BMP_pressure;BME280_temperature;BME280_humidity;BME280_pressure;Samples;Min_cycle;Max_cycle;Signal;HPM_P1;HPM_P2
2023/07/09 00:00:48;;;;;;;13.17;5.87;;;30.90;42.70;;;;;;5068162;28;20541;-77
2023/07/09 00:03:16;;;;;;;7.00;5.70;;;30.80;42.90;;;;;;5068124;28;20450;-77
2023/07/09 00:05:44;;;;;;;7.40;6.07;;;30.80;43.00;;;;;;5068328;28;20511;-77
2023/07/09 00:08:16;;;;;;;6.20;5.60;;;30.80;42.80;;;;;;5068187;28;20549;-77
2023/07/09 00:10:45;;;;;;;6.60;6.00;;;30.70;42.90;;;;;;5067967;28;20440;-78
2023/07/09 00:13:13;;;;;;;8.33;6.03;;;30.70;43.10;;;;;;5067768;28;20571;-79
2023/07/09 00:15:41;;;;;;;15.10;13.50;;;30.70;43.00;;;;;;5068524;28;20529;-77
2023/07/09 00:18:09;;;;;;;26.43;20.50;;;30.70;43.00;;;;;;5065609;28;20454;-79
2023/07/09 00:20:37;;;;;;;27.17;20.27;;;30.70;43.30;;;;;;5067583;28;20460;-78
2023/07/09 00:23:05;;;;;;;31.17;21.53;;;30.60;43.40;;;;;;5062778;28;20590;-78
2023/07/09 00:25:35;;;;;;;28.43;22.10;;;30.50;43.30;;;;;;5066976;28;20415;-78
2023/07/09 00:28:06;;;;;;;31.87;25.90;;;30.40;43.50;;;;;;5059747;28;20444;-79
2023/07/09 00:30:34;;;;;;;28.07;21.83;;;30.40;43.60;;;;;;5066088;28;20411;-78
2023/07/09 00:33:04;;;;;;;29.30;23.03;;;30.40;43.70;;;;;;5086119;28;20561;-78
2023/07/09 00:35:32;;;;;;;34.57;27.43;;;30.30;43.60;;;;;;5083471;28;20492;-78
2023/07/09 00:38:01;;;;;;;38.27;27.37;;;30.30;43.90;;;;;;5085258;28;20422;-76
2023/07/09 00:40:28;;;;;;;31.40;23.80;;;30.30;44.10;;;;;;5060584;28;20480;-78
2023/07/09 00:42:56;;;;;;;28.00;21.63;;;30.30;44.00;;;;;;5066698;28;20450;-78
2023/07/09 00:45:27;;;;;;;29.23;22.80;;;30.30;43.80;;;;;;5059522;28;20519;-77
2023/07/09 00:47:56;;;;;;;25.07;19.83;;;30.30;43.90;;;;;;5066860;28;20500;-78
2023/07/09 00:50:33;;;;;;;27.73;18.57;;;30.30;43.80;;;;;;5067304;28;20423;-78
2023/07/09 00:53:07;;;;;;;28.13;21.43;;;30.20;43.70;;;;;;5067125;28;20448;-77
2023/07/09 00:55:40;;;;;;;22.53;18.07;;;30.10;44.00;;;;;;5066670;28;20889;-78
2023/07/09 00:58:10;;;;;;;29.90;20.27;;;30.10;43.70;;;;;;5067272;28;20457;-78
2023/07/09 01:00:46;;;;;;;28.40;22.93;;;30.00;43.90;;;;;;5067022;28;20529;-78
2023/07/09 01:03:19;;;;;;;34.63;24.17;;;29.90;44.40;;;;;;5061492;28;20947;-79
2023/07/09 01:05:51;;;;;;;38.20;26.03;;;29.80;44.60;;;;;;5053399;28;20438;-78
2023/07/09 01:08:20;;;;;;;25.60;20.10;;;29.80;44.90;;;;;;5053720;28;20907;-78
2023/07/09 01:10:48;;;;;;;22.73;17.60;;;29.90;44.60;;;;;;5053888;28;20583;-78
2023/07/09 01:13:18;;;;;;;22.33;18.57;;;29.90;45.20;;;;;;5053260;28;20507;-78
2023/07/09 01:15:47;;;;;;;30.63;21.83;;;29.80;44.60;;;;;;5053528;28;20425;-78
2023/07/09 01:18:15;;;;;;;28.33;19.10;;;29.80;44.50;;;;;;5053094;28;20447;-79
2023/07/09 01:20:43;;;;;;;26.30;19.57;;;29.70;44.80;;;;;;5053159;28;20427;-78
2023/07/09 01:23:13;;;;;;;26.17;20.80;;;29.60;45.00;;;;;;5053381;28;20437;-78
2023/07/09 01:25:44;;;;;;;22.87;18.50;;;29.40;45.40;;;;;;5053304;28;20505;-77
2023/07/09 01:28:11;;;;;;;27.00;18.03;;;29.30;45.40;;;;;;5053193;28;20513;-79
2023/07/09 01:30:40;;;;;;;22.43;17.80;;;29.30;45.60;;;;;;5053130;28;20508;-78
2023/07/09 01:33:09;;;;;;;20.93;17.47;;;29.30;45.60;;;;;;5053681;28;20477;-78
2023/07/09 01:35:40;;;;;;;20.50;15.60;;;29.30;45.60;;;;;;5053173;28;20405;-78
2023/07/09 01:38:09;;;;;;;17.07;13.67;;;29.20;45.70;;;;;;5053142;28;20493;-78
2023/07/09 01:40:38;;;;;;;19.07;13.20;;;29.20;45.60;;;;;;5052845;28;20419;-78
2023/07/09 01:43:07;;;;;;;14.53;12.97;;;29.30;45.40;;;;;;5053059;28;20456;-78
2023/07/09 01:45:36;;;;;;;16.77;11.90;;;29.30;45.30;;;;;;5053138;28;20505;-78
2023/07/09 01:48:04;;;;;;;14.80;12.47;;;29.30;45.10;;;;;;5052739;28;20533;-78
2023/07/09 01:50:32;;;;;;;16.53;12.00;;;29.30;45.00;;;;;;5052875;28;20413;-78
2023/07/09 01:53:00;;;;;;;12.50;11.03;;;29.30;44.90;;;;;;5052603;28;20479;-77
2023/07/09 01:55:28;;;;;;;14.70;11.20;;;29.30;44.60;;;;;;5052950;28;20492;-77
2023/07/09 01:57:57;;;;;;;19.70;11.17;;;29.30;44.50;;;;;;5052718;28;20448;-78
2023/07/09 02:00:25;;;;;;;15.50;10.90;;;29.10;44.80;;;;;;5052763;28;20455;-78
2023/07/09 02:02:54;;;;;;;15.50;10.30;;;29.10;44.90;;;;;;5051669;28;20501;-77
2023/07/09 02:05:23;;;;;;;12.60;10.73;;;29.10;44.70;;;;;;5052866;28;20429;-77
2023/07/09 02:07:51;;;;;;;11.23;9.90;;;29.00;44.90;;;;;;5051967;28;20451;-78
2023/07/09 02:10:19;;;;;;;10.77;9.63;;;29.00;44.70;;;;;;5052347;28;20541;-77
2023/07/09 02:12:47;;;;;;;13.50;11.53;;;29.00;44.50;;;;;;5051650;28;20474;-78
2023/07/09 02:15:17;;;;;;;15.70;11.50;;;29.00;45.20;;;;;;5049426;28;20421;-78
2023/07/09 02:17:45;;;;;;;12.80;10.67;;;28.90;44.50;;;;;;5051663;28;20417;-76
2023/07/09 02:20:15;;;;;;;13.30;11.33;;;29.00;44.70;;;;;;5052019;28;20417;-77
2023/07/09 02:22:43;;;;;;;15.50;10.50;;;29.10;44.30;;;;;;5051888;28;20520;-77
2023/07/09 02:25:11;;;;;;;18.43;10.13;;;28.90;44.40;;;;;;5051566;28;20417;-78
2023/07/09 02:27:39;;;;;;;15.10;10.17;;;28.80;44.70;;;;;;5045272;28;20435;-77
2023/07/09 02:30:10;;;;;;;17.53;11.30;;;28.80;44.60;;;;;;5051860;28;20442;-77
2023/07/09 02:32:39;;;;;;;12.70;10.80;;;28.80;44.90;;;;;;5044205;28;20495;-77
2023/07/09 02:35:08;;;;;;;14.60;10.20;;;28.80;44.60;;;;;;5058949;28;20416;-78
2023/07/09 02:37:36;;;;;;;10.47;9.20;;;28.80;44.90;;;;;;5070505;28;20426;-77
2023/07/09 02:40:05;;;;;;;11.40;10.10;;;28.70;44.60;;;;;;5070903;28;20925;-78
2023/07/09 02:42:33;;;;;;;11.17;10.03;;;28.70;44.90;;;;;;5051521;28;20405;-78
2023/07/09 02:45:02;;;;;;;11.33;9.87;;;28.60;44.80;;;;;;5051728;28;20491;-78
2023/07/09 02:47:30;;;;;;;14.10;9.40;;;28.60;44.80;;;;;;5050816;28;20444;-78
2023/07/09 02:50:00;;;;;;;10.57;9.40;;;28.60;44.70;;;;;;5051935;28;20405;-77
2023/07/09 02:52:27;;;;;;;16.53;10.07;;;28.50;44.90;;;;;;5051325;28;20477;-77
2023/07/09 02:54:56;;;;;;;13.97;10.63;;;28.40;45.10;;;;;;5051622;28;20484;-77
2023/07/09 02:57:24;;;;;;;10.83;9.33;;;28.50;45.30;;;;;;5060164;28;20428;-79
2023/07/09 02:59:52;;;;;;;10.93;9.57;;;28.50;44.90;;;;;;5038254;28;20872;-79
2023/07/09 03:02:21;;;;;;;11.50;9.40;;;28.50;45.20;;;;;;5048553;28;20452;-79
2023/07/09 03:04:49;;;;;;;10.83;8.30;;;28.50;45.20;;;;;;5044038;28;20473;-78
2023/07/09 03:07:18;;;;;;;11.47;9.67;;;28.30;45.10;;;;;;5051421;28;20512;-78
2023/07/09 03:09:47;;;;;;;10.37;9.37;;;28.30;45.20;;;;;;5048009;28;20461;-78
2023/07/09 03:12:15;;;;;;;11.43;9.60;;;28.20;45.20;;;;;;5048139;28;20456;-79
2023/07/09 03:14:43;;;;;;;10.20;9.20;;;28.30;45.30;;;;;;5040655;28;20524;-79
2023/07/09 03:17:12;;;;;;;10.13;9.10;;;28.30;45.20;;;;;;5039832;28;20425;-79
2023/07/09 03:19:40;;;;;;;10.03;9.03;;;28.20;45.30;;;;;;5061654;28;20488;-78
2023/07/09 03:22:08;;;;;;;10.93;8.43;;;28.20;45.50;;;;;;5055603;28;20417;-77
2023/07/09 03:24:37;;;;;;;10.23;9.23;;;28.10;45.40;;;;;;5050927;28;20461;-77
2023/07/09 03:27:06;;;;;;;15.63;8.97;;;28.10;45.20;;;;;;5065082;28;20420;-77
2023/07/09 03:29:35;;;;;;;10.10;8.90;;;28.20;45.20;;;;;;5069138;28;20408;-78
2023/07/09 03:32:03;;;;;;;11.83;9.80;;;28.20;45.10;;;;;;5049834;28;20496;-77
2023/07/09 03:34:30;;;;;;;10.70;9.60;;;28.20;45.20;;;;;;5050440;28;20952;-77
2023/07/09 03:36:59;;;;;;;10.20;9.03;;;28.20;45.30;;;;;;5045151;28;20505;-77
2023/07/09 03:39:26;;;;;;;11.13;8.87;;;28.20;45.20;;;;;;5048412;28;20421;-79
2023/07/09 03:41:56;;;;;;;11.03;9.93;;;28.30;45.10;;;;;;5050619;28;20587;-77
2023/07/09 03:44:25;;;;;;;11.50;9.47;;;28.20;45.20;;;;;;5043478;28;20562;-78
2023/07/09 03:46:53;;;;;;;10.57;9.47;;;28.30;45.00;;;;;;5069526;28;20420;-77
2023/07/09 03:49:21;;;;;;;9.97;9.00;;;28.20;45.20;;;;;;5061750;28;20413;-77
2023/07/09 03:51:49;;;;;;;12.30;9.27;;;28.30;45.20;;;;;;5050186;28;20428;-78
2023/07/09 03:54:17;;;;;;;13.33;8.80;;;28.30;44.80;;;;;;5050702;28;20459;-78
2023/07/09 03:56:46;;;;;;;10.63;9.60;;;28.10;45.00;;;;;;5068888;28;20534;-76
2023/07/09 03:59:15;;;;;;;11.13;9.50;;;28.10;45.20;;;;;;5047128;28;20827;-76
2023/07/09 04:01:45;;;;;;;13.20;8.03;;;28.10;45.30;;;;;;5053476;28;20495;-77
2023/07/09 04:04:14;;;;;;;9.90;9.00;;;28.10;45.50;;;;;;5050311;28;20466;-76
2023/07/09 04:06:42;;;;;;;9.67;8.77;;;28.10;45.40;;;;;;5050291;28;20458;-77
2023/07/09 04:09:09;;;;;;;9.77;8.77;;;28.10;45.40;;;;;;5043626;28;20888;-77
2023/07/09 04:11:38;;;;;;;13.70;9.67;;;28.00;45.40;;;;;;5050246;28;20444;-77
2023/07/09 04:14:07;;;;;;;9.20;8.20;;;28.10;45.40;;;;;;5050051;28;20440;-77
2023/07/09 04:16:36;;;;;;;12.27;8.90;;;28.00;45.60;;;;;;5050533;28;20424;-77
2023/07/09 04:19:04;;;;;;;9.30;8.30;;;28.00;45.60;;;;;;5050526;28;20436;-76
2023/07/09 04:21:32;;;;;;;9.60;8.70;;;28.00;45.50;;;;;;5050122;28;20412;-77
2023/07/09 04:24:00;;;;;;;14.10;9.00;;;28.10;45.40;;;;;;5049983;28;20541;-77
2023/07/09 04:26:28;;;;;;;8.80;8.00;;;28.20;45.10;;;;;;5050216;28;20447;-77
2023/07/09 04:28:56;;;;;;;10.73;8.40;;;28.30;45.00;;;;;;5042156;28;20754;-77
2023/07/09 04:31:24;;;;;;;15.10;8.77;;;28.30;44.60;;;;;;5050494;28;20533;-77
2023/07/09 04:33:53;;;;;;;9.53;8.20;;;28.30;44.50;;;;;;5053846;28;20440;-77
2023/07/09 04:36:22;;;;;;;12.27;9.10;;;28.30;44.70;;;;;;5069384;28;20449;-77
2023/07/09 04:38:49;;;;;;;9.60;8.73;;;28.30;44.60;;;;;;5051954;28;20470;-78
2023/07/09 04:41:18;;;;;;;11.20;10.00;;;28.30;44.60;;;;;;5053598;28;20450;-78
2023/07/09 04:43:46;;;;;;;17.13;12.90;;;28.30;44.50;;;;;;5053628;28;20560;-76
2023/07/09 04:46:14;;;;;;;16.10;14.00;;;28.40;44.40;;;;;;5053793;28;21004;-78
2023/07/09 04:48:42;;;;;;;18.97;15.30;;;28.40;44.40;;;;;;5046146;28;20963;-78
2023/07/09 04:51:12;;;;;;;20.20;15.33;;;28.30;44.50;;;;;;5054022;28;20492;-78
2023/07/09 04:53:40;;;;;;;16.97;13.80;;;28.30;44.80;;;;;;5062898;28;20565;-77
2023/07/09 04:56:09;;;;;;;19.73;14.50;;;28.20;45.00;;;;;;5053841;28;20421;-76
2023/07/09 04:58:37;;;;;;;17.17;15.00;;;28.20;45.40;;;;;;5053651;28;20425;-76
2023/07/09 05:01:05;;;;;;;17.23;13.83;;;28.30;45.20;;;;;;5054855;28;20438;-76
2023/07/09 05:03:34;;;;;;;14.90;11.70;;;28.30;45.60;;;;;;5044469;28;20442;-76
2023/07/09 05:06:02;;;;;;;16.70;11.80;;;28.20;44.90;;;;;;5053455;28;20409;-76
2023/07/09 05:08:32;;;;;;;16.00;11.80;;;28.20;44.90;;;;;;5054193;28;20451;-77
2023/07/09 05:11:00;;;;;;;14.60;12.30;;;28.10;45.20;;;;;;5065765;28;20425;-78
2023/07/09 05:13:28;;;;;;;22.77;16.20;;;28.20;45.30;;;;;;5065083;28;20468;-78
2023/07/09 05:15:56;;;;;;;24.40;18.80;;;28.20;45.00;;;;;;5045564;28;20839;-78
2023/07/09 05:18:25;;;;;;;17.60;15.67;;;28.30;45.00;;;;;;5053311;28;20464;-78
2023/07/09 05:20:53;;;;;;;15.77;14.07;;;28.40;45.00;;;;;;5061522;28;20478;-78
2023/07/09 05:23:20;;;;;;;18.30;15.10;;;28.40;45.10;;;;;;5053038;28;20524;-78
2023/07/09 05:25:49;;;;;;;15.23;13.10;;;28.40;44.80;;;;;;5053331;28;20437;-78
2023/07/09 05:28:18;;;;;;;14.80;12.80;;;28.40;45.10;;;;;;5053107;28;20864;-78
2023/07/09 05:30:45;;;;;;;18.57;13.50;;;28.40;44.70;;;;;;5052370;28;20504;-78
2023/07/09 05:33:14;;;;;;;17.20;13.97;;;28.40;45.00;;;;;;5053011;28;20477;-78
2023/07/09 05:35:43;;;;;;;16.93;12.37;;;28.40;44.90;;;;;;5062062;28;20505;-78
2023/07/09 05:38:11;;;;;;;13.17;11.63;;;28.50;44.90;;;;;;5072802;28;20444;-78
2023/07/09 05:40:39;;;;;;;12.07;10.30;;;28.40;45.10;;;;;;5070859;28;20409;-78
2023/07/09 05:43:09;;;;;;;12.17;10.87;;;28.30;45.20;;;;;;5046504;28;20437;-78
2023/07/09 05:45:38;;;;;;;10.90;9.80;;;28.30;45.50;;;;;;5052640;28;20401;-77
2023/07/09 05:48:06;;;;;;;15.70;10.80;;;28.40;45.50;;;;;;5052499;28;20453;-78
2023/07/09 05:50:35;;;;;;;12.23;10.93;;;28.60;45.40;;;;;;5068819;28;20449;-77
2023/07/09 05:53:02;;;;;;;15.93;11.47;;;28.60;45.00;;;;;;5071847;28;20515;-78
2023/07/09 05:55:30;;;;;;;11.43;10.27;;;28.60;45.40;;;;;;5057281;28;20470;-78
2023/07/09 05:57:59;;;;;;;11.70;9.50;;;28.70;45.30;;;;;;5071209;28;20434;-77
2023/07/09 06:00:29;;;;;;;13.07;10.00;;;28.70;45.10;;;;;;5063770;28;20503;-77
2023/07/09 06:02:57;;;;;;;10.50;9.50;;;28.80;45.20;;;;;;5071518;28;20457;-78
2023/07/09 06:05:25;;;;;;;11.23;10.13;;;28.80;45.00;;;;;;5071932;28;20430;-77
2023/07/09 06:07:53;;;;;;;12.37;10.10;;;28.80;45.70;;;;;;5052648;28;20437;-78
2023/07/09 06:10:21;;;;;;;10.53;9.33;;;28.90;45.30;;;;;;5052107;28;20780;-78
2023/07/09 06:12:49;;;;;;;11.53;10.20;;;28.90;45.40;;;;;;5051306;28;20496;-78
2023/07/09 06:15:17;;;;;;;11.03;9.83;;;28.90;45.40;;;;;;5051973;28;20495;-78
2023/07/09 06:17:47;;;;;;;12.43;10.50;;;28.90;45.70;;;;;;5052463;28;20538;-78
2023/07/09 06:20:15;;;;;;;10.80;9.57;;;29.00;45.60;;;;;;5052281;28;20477;-77
2023/07/09 06:22:43;;;;;;;9.97;9.07;;;29.00;45.80;;;;;;5052125;28;20511;-78
2023/07/09 06:25:12;;;;;;;10.13;9.20;;;29.00;45.80;;;;;;5052362;28;20413;-79
2023/07/09 06:27:40;;;;;;;9.47;8.57;;;29.00;46.10;;;;;;5052034;28;20550;-77
2023/07/09 06:30:09;;;;;;;9.30;8.50;;;29.10;45.60;;;;;;5052362;28;20441;-77
2023/07/09 06:32:37;;;;;;;9.37;8.50;;;29.20;45.90;;;;;;5051518;28;20468;-78
2023/07/09 06:35:08;;;;;;;12.43;8.40;;;29.20;46.00;;;;;;5051935;28;20445;-78
2023/07/09 06:37:36;;;;;;;9.60;8.70;;;29.30;45.70;;;;;;5052246;28;20516;-78
2023/07/09 06:40:07;;;;;;;13.53;9.60;;;29.30;46.00;;;;;;5051688;28;20441;-77
2023/07/09 06:42:36;;;;;;;10.30;9.20;;;29.30;46.30;;;;;;5051819;28;20417;-78
2023/07/09 06:45:05;;;;;;;9.80;8.90;;;29.30;46.10;;;;;;5051625;28;20938;-78
2023/07/09 06:47:32;;;;;;;26.00;8.37;;;29.30;46.60;;;;;;5051533;28;20473;-78
2023/07/09 06:50:01;;;;;;;8.93;8.23;;;29.30;46.00;;;;;;5051515;28;20452;-78
2023/07/09 06:52:30;;;;;;;10.03;8.40;;;29.50;46.00;;;;;;5051347;28;21003;-78
2023/07/09 06:54:59;;;;;;;9.10;8.17;;;29.60;45.70;;;;;;5052014;28;20452;-78
2023/07/09 06:57:27;;;;;;;8.80;7.90;;;29.70;45.90;;;;;;5051749;28;20429;-78
2023/07/09 06:59:55;;;;;;;8.77;7.97;;;29.70;45.80;;;;;;5051645;28;20533;-78
2023/07/09 07:02:24;;;;;;;9.80;8.07;;;29.80;45.90;;;;;;5051456;28;20551;-79
2023/07/09 07:04:52;;;;;;;9.63;7.60;;;29.90;45.80;;;;;;5052020;28;20445;-79
2023/07/09 07:07:20;;;;;;;8.27;7.47;;;29.90;45.30;;;;;;5051320;28;20438;-79
2023/07/09 07:09:50;;;;;;;8.60;7.80;;;30.00;45.30;;;;;;5051888;28;20420;-79
2023/07/09 07:12:25;;;;;;;8.10;7.40;;;30.10;44.90;;;;;;5052064;28;20447;-78
2023/07/09 07:14:53;;;;;;;7.97;7.27;;;30.00;44.90;;;;;;5052122;28;20576;-79
2023/07/09 07:17:21;;;;;;;10.70;7.53;;;30.20;45.20;;;;;;5051942;28;20496;-79
2023/07/09 07:19:50;;;;;;;7.43;6.80;;;30.20;44.90;;;;;;5051662;28;20461;-79
2023/07/09 07:22:18;;;;;;;7.60;6.87;;;30.20;44.60;;;;;;5051817;28;20409;-80
2023/07/09 07:24:46;;;;;;;7.13;6.53;;;30.40;44.70;;;;;;5052065;28;20516;-79
2023/07/09 07:27:15;;;;;;;7.57;6.97;;;30.40;44.50;;;;;;5051641;28;20425;-78
2023/07/09 07:29:45;;;;;;;7.60;7.00;;;30.40;44.50;;;;;;5051050;28;20409;-78
2023/07/09 07:32:13;;;;;;;10.93;7.20;;;30.40;44.10;;;;;;5050967;28;20876;-78
2023/07/09 07:34:41;;;;;;;7.50;7.00;;;30.40;44.00;;;;;;5055310;22;20487;-78
2023/07/09 07:37:10;;;;;;;7.40;6.70;;;30.50;44.10;;;;;;5030760;28;20478;-77
2023/07/09 07:39:38;;;;;;;7.67;7.00;;;30.60;44.00;;;;;;5030879;28;20402;-77
2023/07/09 07:42:06;;;;;;;8.33;7.20;;;30.70;43.70;;;;;;5030627;28;20418;-77
2023/07/09 07:44:36;;;;;;;7.33;6.67;;;30.80;43.90;;;;;;5030886;28;20517;-77
2023/07/09 07:47:05;;;;;;;8.30;6.73;;;30.90;44.00;;;;;;5030725;28;20406;-77
2023/07/09 07:49:33;;;;;;;11.93;10.40;;;31.10;43.60;;;;;;5030783;28;20446;-77
2023/07/09 07:52:03;;;;;;;18.43;9.80;;;31.20;43.60;;;;;;5049685;28;20472;-77
2023/07/09 07:54:31;;;;;;;9.20;7.70;;;31.20;43.60;;;;;;5043327;28;20490;-77
2023/07/09 07:56:59;;;;;;;9.13;7.90;;;31.20;43.40;;;;;;5030781;28;20502;-77
2023/07/09 07:59:27;;;;;;;8.67;7.50;;;31.20;43.30;;;;;;5031095;28;20410;-77
2023/07/09 08:01:56;;;;;;;8.67;7.87;;;31.30;43.20;;;;;;5030553;28;20918;-77
2023/07/09 08:04:25;;;;;;;7.47;6.87;;;31.30;43.10;;;;;;5029122;28;20471;-77
2023/07/09 08:06:53;;;;;;;8.43;7.53;;;31.40;43.20;;;;;;5024007;28;20403;-78
2023/07/09 08:09:21;;;;;;;7.17;6.50;;;31.60;43.00;;;;;;5030812;28;20476;-77
2023/07/09 08:11:49;;;;;;;7.67;6.73;;;31.70;42.90;;;;;;5039072;28;20463;-77
2023/07/09 08:14:17;;;;;;;6.80;6.20;;;31.80;42.90;;;;;;5044224;28;20447;-77
2023/07/09 08:16:45;;;;;;;7.03;6.43;;;31.90;42.70;;;;;;5045155;28;20478;-77
2023/07/09 08:19:18;;;;;;;7.10;6.60;;;31.90;42.50;;;;;;5034633;28;20428;-77
2023/07/09 08:21:46;;;;;;;7.47;6.80;;;32.10;42.70;;;;;;5034527;28;20423;-78
2023/07/09 08:24:15;;;;;;;7.57;6.87;;;32.20;42.80;;;;;;5034496;28;20434;-77
2023/07/09 08:26:43;;;;;;;6.60;6.00;;;32.30;42.60;;;;;;5034669;28;20418;-77
2023/07/09 08:29:11;;;;;;;7.83;7.10;;;32.40;42.60;;;;;;5034627;28;20471;-77
2023/07/09 08:31:41;;;;;;;6.70;6.10;;;32.50;42.40;;;;;;5034443;28;20456;-77
2023/07/09 08:34:10;;;;;;;6.77;5.93;;;32.60;42.30;;;;;;5034180;28;20507;-77
2023/07/09 08:36:39;;;;;;;6.57;6.07;;;32.70;42.30;;;;;;5034646;28;20441;-77
2023/07/09 08:39:07;;;;;;;7.30;6.60;;;32.90;42.10;;;;;;5034555;28;20489;-78
2023/07/09 08:41:40;;;;;;;7.10;6.40;;;33.00;42.00;;;;;;5034606;28;20414;-77
2023/07/09 08:44:18;;;;;;;7.33;6.63;;;33.00;42.00;;;;;;5034232;28;21017;-78
2023/07/09 08:46:57;;;;;;;6.97;6.20;;;33.10;41.70;;;;;;5034136;28;20466;-77
2023/07/09 08:49:31;;;;;;;7.47;6.87;;;33.20;41.50;;;;;;5034354;28;20542;-78
2023/07/09 08:52:01;;;;;;;8.20;7.53;;;33.30;41.50;;;;;;5034533;28;20475;-76
2023/07/09 08:54:31;;;;;;;8.23;7.53;;;33.40;41.50;;;;;;5034092;28;20502;-78
2023/07/09 08:57:03;;;;;;;8.27;7.47;;;33.50;41.50;;;;;;5034015;28;20445;-77
2023/07/09 08:59:31;;;;;;;8.50;7.10;;;33.50;41.60;;;;;;5033639;28;20443;-77
2023/07/09 09:02:00;;;;;;;7.87;7.17;;;33.70;42.10;;;;;;5034413;28;20534;-78
2023/07/09 09:04:29;;;;;;;6.80;6.20;;;33.80;42.10;;;;;;5033562;28;20547;-77
2023/07/09 09:07:02;;;;;;;6.20;5.60;;;33.90;42.10;;;;;;5034127;28;20441;-77
2023/07/09 09:09:33;;;;;;;6.13;5.63;;;34.00;41.80;;;;;;5033909;28;20472;-77
2023/07/09 09:12:08;;;;;;;7.20;6.60;;;34.10;41.60;;;;;;5033352;28;20471;-77
2023/07/09 09:14:38;;;;;;;7.10;6.40;;;34.20;41.60;;;;;;5033897;28;20446;-78
2023/07/09 09:17:11;;;;;;;6.97;6.47;;;34.30;41.50;;;;;;5033572;28;20545;-77
2023/07/09 09:19:45;;;;;;;6.97;6.47;;;34.50;41.40;;;;;;5033909;28;20427;-77
2023/07/09 09:22:18;;;;;;;8.77;7.17;;;34.50;41.30;;;;;;5033580;28;20440;-77
2023/07/09 09:24:54;;;;;;;7.70;7.03;;;34.70;41.40;;;;;;5033261;28;20459;-77
2023/07/09 09:27:22;;;;;;;7.03;6.53;;;34.80;41.30;;;;;;5033585;28;20483;-78
2023/07/09 09:29:50;;;;;;;7.80;7.00;;;34.90;41.20;;;;;;5033574;28;20441;-76
2023/07/09 09:32:22;;;;;;;7.83;6.77;;;34.90;40.80;;;;;;5033871;28;20459;-77
2023/07/09 09:34:50;;;;;;;6.33;5.93;;;35.00;40.70;;;;;;5033774;28;20861;-76
2023/07/09 09:37:25;;;;;;;6.23;5.73;;;35.00;40.70;;;;;;5033268;28;20481;-77
2023/07/09 09:39:52;;;;;;;11.67;7.90;;;35.10;40.80;;;;;;5033475;28;20471;-77
2023/07/09 09:42:42;;;;;;;7.50;6.80;;;35.20;41.00;;;;;;5033437;28;20440;-77
2023/07/09 09:45:12;;;;;;;7.93;6.90;;;35.20;40.60;;;;;;5033396;28;20822;-77
2023/07/09 09:47:40;;;;;;;9.13;7.53;;;35.20;41.10;;;;;;5033503;28;20453;-77
2023/07/09 09:50:10;;;;;;;8.43;7.73;;;35.20;40.40;;;;;;5033050;28;20941;-78
2023/07/09 09:52:40;;;;;;;7.27;6.73;;;35.30;40.60;;;;;;5032784;28;21020;-77
2023/07/09 09:55:11;;;;;;;7.20;6.70;;;35.40;40.70;;;;;;5033023;28;20521;-77
2023/07/09 09:57:39;;;;;;;6.73;6.27;;;35.40;40.90;;;;;;5033030;28;20472;-77
2023/07/09 10:00:15;;;;;;;9.40;6.70;;;35.50;40.80;;;;;;5032756;28;20518;-77
2023/07/09 10:02:45;;;;;;;7.17;6.57;;;35.60;40.50;;;;;;5033043;28;20497;-77
2023/07/09 10:05:14;;;;;;;6.93;6.37;;;35.70;40.50;;;;;;5032973;28;20459;-77
2023/07/09 10:07:46;;;;;;;6.07;5.63;;;35.70;40.50;;;;;;5032829;28;20435;-77
2023/07/09 10:10:15;;;;;;;9.73;6.60;;;35.80;40.20;;;;;;5032740;28;20461;-77
2023/07/09 10:12:45;;;;;;;6.73;6.33;;;36.00;40.10;;;;;;5032732;28;20475;-77
2023/07/09 10:15:18;;;;;;;9.03;8.33;;;36.10;40.00;;;;;;5032930;28;20856;-78
2023/07/09 10:17:51;;;;;;;7.60;7.00;;;36.20;39.90;;;;;;5032743;28;20475;-77
2023/07/09 10:20:22;;;;;;;7.77;6.20;;;36.30;39.80;;;;;;5032841;28;20443;-77
2023/07/09 10:22:58;;;;;;;7.10;6.33;;;36.30;39.90;;;;;;5032972;28;20451;-77
2023/07/09 10:25:37;;;;;;;6.47;5.80;;;36.40;39.10;;;;;;5032758;28;20482;-77
2023/07/09 10:28:21;;;;;;;6.60;6.20;;;36.50;39.20;;;;;;5032679;28;20470;-77
2023/07/09 10:30:52;;;;;;;7.07;6.43;;;36.60;39.00;;;;;;5032638;28;20467;-77
2023/07/09 10:33:23;;;;;;;6.53;6.03;;;36.70;38.70;;;;;;5032370;28;20486;-77
2023/07/09 10:35:55;;;;;;;7.60;6.90;;;36.80;38.50;;;;;;5031157;28;20486;-77
2023/07/09 10:38:33;;;;;;;6.70;6.23;;;36.90;38.40;;;;;;5033448;28;20577;-77
2023/07/09 10:41:03;;;;;;;9.57;7.77;;;37.00;38.40;;;;;;5033193;28;20516;-77
2023/07/09 10:43:53;;;;;;;7.00;6.40;;;37.10;38.40;;;;;;5033145;28;20463;-76
2023/07/09 10:46:21;;;;;;;8.47;5.87;;;37.20;37.70;;;;;;5034653;28;20440;-77
2023/07/09 10:48:51;;;;;;;7.53;5.53;;;37.30;37.50;;;;;;5042269;28;20439;-77
2023/07/09 10:51:22;;;;;;;8.50;5.90;;;37.30;37.00;;;;;;5032402;28;20435;-76
2023/07/09 10:53:56;;;;;;;5.93;5.53;;;37.40;36.40;;;;;;5032068;28;20486;-77
2023/07/09 10:56:26;;;;;;;5.70;5.20;;;37.40;35.50;;;;;;5031778;28;20439;-77
2023/07/09 10:58:58;;;;;;;6.03;5.53;;;37.40;35.40;;;;;;5031847;28;20554;-76
2023/07/09 11:01:30;;;;;;;5.70;5.00;;;37.50;34.80;;;;;;5032003;28;20443;-77
2023/07/09 11:04:01;;;;;;;5.97;5.53;;;37.60;34.90;;;;;;5031539;28;20455;-78
2023/07/09 11:06:32;;;;;;;7.60;6.80;;;37.70;34.90;;;;;;5031715;28;20436;-78
2023/07/09 11:09:01;;;;;;;8.20;7.50;;;37.80;35.00;;;;;;5031666;28;20507;-78
2023/07/09 11:11:33;;;;;;;7.37;6.47;;;37.90;35.10;;;;;;5031723;28;20443;-77
2023/07/09 11:14:03;;;;;;;6.90;6.40;;;37.90;34.80;;;;;;5031400;28;20558;-78
2023/07/09 11:16:33;;;;;;;6.03;5.47;;;38.00;34.90;;;;;;5031649;28;20442;-78
2023/07/09 11:19:01;;;;;;;6.10;5.50;;;38.10;35.20;;;;;;5031048;28;20479;-77
2023/07/09 11:21:30;;;;;;;8.43;4.90;;;38.20;35.10;;;;;;5030978;28;20995;-78
2023/07/09 11:23:59;;;;;;;5.90;5.47;;;38.20;34.70;;;;;;5030962;28;20452;-78
2023/07/09 11:26:29;;;;;;;6.00;5.50;;;38.30;34.60;;;;;;5031482;28;20531;-78
2023/07/09 11:29:14;;;;;;;7.70;5.17;;;38.40;34.70;;;;;;5031319;28;20436;-77
2023/07/09 11:31:45;;;;;;;6.17;5.67;;;38.50;34.50;;;;;;5031766;28;20471;-77
2023/07/09 11:34:17;;;;;;;7.07;5.37;;;38.60;34.60;;;;;;5030976;28;20506;-77
2023/07/09 11:36:50;;;;;;;5.23;4.93;;;38.60;34.80;;;;;;5031261;28;20553;-77
2023/07/09 11:39:22;;;;;;;5.83;5.33;;;38.70;34.60;;;;;;5030919;28;20472;-77
2023/07/09 11:41:52;;;;;;;6.40;6.00;;;38.80;34.70;;;;;;5031182;28;20876;-77
2023/07/09 11:44:21;;;;;;;7.00;6.37;;;38.90;34.90;;;;;;5031396;28;20550;-76
2023/07/09 11:47:04;;;;;;;6.00;5.50;;;38.90;35.50;;;;;;5031599;28;20473;-77
2023/07/09 11:49:35;;;;;;;6.07;5.57;;;39.00;34.50;;;;;;5030734;28;20446;-78
2023/07/09 11:52:05;;;;;;;8.57;5.23;;;39.10;33.80;;;;;;5031377;28;20439;-77
2023/07/09 11:54:36;;;;;;;6.00;5.60;;;39.10;33.50;;;;;;5030096;28;20533;-77
2023/07/09 11:57:11;;;;;;;7.13;6.60;;;39.10;33.60;;;;;;5031074;28;20996;-76
2023/07/09 11:59:39;;;;;;;7.50;7.00;;;39.30;34.00;;;;;;5030905;28;20510;-76
2023/07/09 12:02:09;;;;;;;7.03;6.43;;;39.30;34.20;;;;;;5031034;28;20459;-77
2023/07/09 12:04:37;;;;;;;6.17;5.77;;;39.40;34.30;;;;;;5030528;28;20459;-77
2023/07/09 12:07:06;;;;;;;7.03;5.33;;;39.50;34.00;;;;;;5030572;28;20432;-77
2023/07/09 12:09:40;;;;;;;5.37;4.97;;;39.40;33.20;;;;;;5030618;28;20534;-77
2023/07/09 12:12:19;;;;;;;5.43;5.20;;;39.50;33.00;;;;;;5030685;28;20479;-77
2023/07/09 12:14:47;;;;;;;6.33;5.43;;;39.60;33.00;;;;;;5030862;28;20554;-76
2023/07/09 12:17:15;;;;;;;11.30;5.23;;;39.50;32.40;;;;;;5030758;28;20808;-77
2023/07/09 12:19:43;;;;;;;4.73;4.53;;;39.60;32.20;;;;;;5030336;28;20470;-77
2023/07/09 12:22:15;;;;;;;5.00;4.70;;;39.60;31.80;;;;;;5030952;28;20534;-77
2023/07/09 12:24:44;;;;;;;5.80;4.97;;;39.60;31.70;;;;;;5030823;28;20550;-77
2023/07/09 12:27:20;;;;;;;5.17;4.87;;;39.70;32.00;;;;;;5030780;28;20954;-78
2023/07/09 12:29:48;;;;;;;4.93;4.63;;;39.70;31.60;;;;;;5030944;28;20453;-78
2023/07/09 12:32:17;;;;;;;5.33;4.83;;;39.80;32.00;;;;;;5030955;28;20474;-77
2023/07/09 12:34:48;;;;;;;5.30;4.90;;;39.90;32.00;;;;;;5030133;28;20485;-77
2023/07/09 12:37:16;;;;;;;5.07;4.77;;;39.80;31.90;;;;;;5030542;28;20507;-77
2023/07/09 12:39:43;;;;;;;5.53;5.10;;;39.90;31.60;;;;;;5030705;28;20475;-78
2023/07/09 12:42:16;;;;;;;5.43;4.93;;;39.90;31.60;;;;;;5030303;28;20489;-78
2023/07/09 12:44:48;;;;;;;5.63;5.23;;;40.00;32.60;;;;;;5030370;28;20491;-77
2023/07/09 12:47:24;;;;;;;6.00;5.60;;;40.10;31.90;;;;;;5030210;28;20542;-78
2023/07/09 12:49:52;;;;;;;5.73;5.23;;;40.10;31.90;;;;;;5030634;28;20438;-78